Ludlow, Massachusetts
Current Conditions -  °F | °C
As of 9:52 AM on Friday 28 Nov 2014 (Local Time) from KCEF Reporting Station
Broken Clouds Broken Clouds  
Wind Chill: 24°   Ceiling: 2800
Heat Index: 32°   Visibility: 10mi
Dew Point: 23°   Wind: 10mph
Humidity: 69%   Direction: 310°NW
Pressure: 30.1"   Gusts: NA
Location:  42.16°N, 72.48°W
Report Text: KCEF 281452Z AUTO 31009KT 10SM BKN028 BKN036 00/M05 A3010 RMK AO2 CIG 028V036
Loading
Personal Weather Stations






























Interactive Weather Map New forecast layout! Learn more

10-Day Weather Forecast

Advertisements
Track Severe Weather on mobile